sensor_id;sensor_type;location;lat;lon;timestamp;temperature;humidity
52769;DHT22;40471;44.534;18.644;2024-03-07T00:02:17;11.40;99.90
52769;DHT22;40471;44.534;18.644;2024-03-07T00:04:43;11.40;99.90
52769;DHT22;40471;44.534;18.644;2024-03-07T00:07:09;11.30;99.90
52769;DHT22;40471;44.534;18.644;2024-03-07T00:09:35;11.30;99.90
52769;DHT22;40471;44.534;18.644;2024-03-07T00:12:04;11.30;99.90
52769;DHT22;40471;44.534;18.644;2024-03-07T00:14:34;11.30;99.90
52769;DHT22;40471;44.534;18.644;2024-03-07T00:17:01;11.40;99.90
52769;DHT22;40471;44.534;18.644;2024-03-07T00:19:28;11.30;99.90
52769;DHT22;40471;44.534;18.644;2024-03-07T00:21:56;11.40;99.90
52769;DHT22;40471;44.534;18.644;2024-03-07T00:24:22;11.30;99.90
52769;DHT22;40471;44.534;18.644;2024-03-07T00:26:49;11.30;99.90
52769;DHT22;40471;44.534;18.644;2024-03-07T00:29:18;11.30;99.90
52769;DHT22;40471;44.534;18.644;2024-03-07T00:31:45;11.30;99.90
52769;DHT22;40471;44.534;18.644;2024-03-07T00:34:14;11.30;99.90
52769;DHT22;40471;44.534;18.644;2024-03-07T00:36:44;11.30;99.90
52769;DHT22;40471;44.534;18.644;2024-03-07T00:39:10;11.30;99.90
52769;DHT22;40471;44.534;18.644;2024-03-07T00:41:39;11.30;99.90
52769;DHT22;40471;44.534;18.644;2024-03-07T00:44:06;11.20;99.90
52769;DHT22;40471;44.534;18.644;2024-03-07T00:46:34;11.10;99.90
52769;DHT22;40471;44.534;18.644;2024-03-07T00:49:01;11.00;99.90
52769;DHT22;40471;44.534;18.644;2024-03-07T00:51:27;10.90;99.90
52769;DHT22;40471;44.534;18.644;2024-03-07T00:53:53;10.90;99.90
52769;DHT22;40471;44.534;18.644;2024-03-07T00:56:20;10.90;99.90
52769;DHT22;40471;44.534;18.644;2024-03-07T00:58:48;10.90;99.90
52769;DHT22;40471;44.534;18.644;2024-03-07T01:01:13;10.90;99.90
52769;DHT22;40471;44.534;18.644;2024-03-07T01:03:41;10.80;99.90
52769;DHT22;40471;44.534;18.644;2024-03-07T01:06:07;10.80;99.90
52769;DHT22;40471;44.534;18.644;2024-03-07T01:08:35;10.80;99.90
52769;DHT22;40471;44.534;18.644;2024-03-07T01:11:02;10.80;99.90
52769;DHT22;40471;44.534;18.644;2024-03-07T01:13:38;10.80;99.90
52769;DHT22;40471;44.534;18.644;2024-03-07T01:16:04;10.70;99.90
52769;DHT22;40471;44.534;18.644;2024-03-07T01:18:31;10.80;99.90
52769;DHT22;40471;44.534;18.644;2024-03-07T01:21:03;10.70;99.90
52769;DHT22;40471;44.534;18.644;2024-03-07T01:23:30;10.80;99.90
52769;DHT22;40471;44.534;18.644;2024-03-07T01:25:56;10.70;99.90
52769;DHT22;40471;44.534;18.644;2024-03-07T01:28:23;10.70;99.90
52769;DHT22;40471;44.534;18.644;2024-03-07T01:30:52;10.70;99.90
52769;DHT22;40471;44.534;18.644;2024-03-07T01:33:20;10.70;99.90
52769;DHT22;40471;44.534;18.644;2024-03-07T01:35:46;10.70;99.90
52769;DHT22;40471;44.534;18.644;2024-03-07T01:38:13;10.80;99.90
52769;DHT22;40471;44.534;18.644;2024-03-07T01:40:43;10.70;99.90
52769;DHT22;40471;44.534;18.644;2024-03-07T01:43:09;10.70;99.90
52769;DHT22;40471;44.534;18.644;2024-03-07T01:45:36;10.70;99.90
52769;DHT22;40471;44.534;18.644;2024-03-07T01:48:04;10.70;99.90
52769;DHT22;40471;44.534;18.644;2024-03-07T01:50:30;10.80;99.90
52769;DHT22;40471;44.534;18.644;2024-03-07T01:52:56;10.70;99.90
52769;DHT22;40471;44.534;18.644;2024-03-07T01:55:22;10.70;99.90
52769;DHT22;40471;44.534;18.644;2024-03-07T01:57:49;10.70;99.90
52769;DHT22;40471;44.534;18.644;2024-03-07T02:00:15;10.70;99.90
52769;DHT22;40471;44.534;18.644;2024-03-07T02:02:44;10.60;99.90
52769;DHT22;40471;44.534;18.644;2024-03-07T02:05:10;10.60;99.90
52769;DHT22;40471;44.534;18.644;2024-03-07T02:07:36;10.50;99.90
52769;DHT22;40471;44.534;18.644;2024-03-07T02:10:05;10.40;99.90
52769;DHT22;40471;44.534;18.644;2024-03-07T02:12:31;10.40;99.90
52769;DHT22;40471;44.534;18.644;2024-03-07T02:14:57;10.30;99.90
52769;DHT22;40471;44.534;18.644;2024-03-07T02:17:24;10.30;99.90
52769;DHT22;40471;44.534;18.644;2024-03-07T02:19:50;10.40;99.90
52769;DHT22;40471;44.534;18.644;2024-03-07T02:22:16;10.40;99.90
52769;DHT22;40471;44.534;18.644;2024-03-07T02:24:42;10.40;99.90
52769;DHT22;40471;44.534;18.644;2024-03-07T02:27:08;10.40;99.90
52769;DHT22;40471;44.534;18.644;2024-03-07T02:29:35;10.40;99.90
52769;DHT22;40471;44.534;18.644;2024-03-07T02:32:02;10.40;99.90
52769;DHT22;40471;44.534;18.644;2024-03-07T02:34:28;10.40;99.90
52769;DHT22;40471;44.534;18.644;2024-03-07T02:36:54;10.30;99.90
52769;DHT22;40471;44.534;18.644;2024-03-07T02:39:20;10.20;99.90
52769;DHT22;40471;44.534;18.644;2024-03-07T02:41:50;10.20;99.90
52769;DHT22;40471;44.534;18.644;2024-03-07T02:44:16;10.10;99.90
52769;DHT22;40471;44.534;18.644;2024-03-07T02:46:42;10.20;99.90
52769;DHT22;40471;44.534;18.644;2024-03-07T02:49:08;10.30;99.90
52769;DHT22;40471;44.534;18.644;2024-03-07T02:51:35;10.20;99.90
52769;DHT22;40471;44.534;18.644;2024-03-07T02:54:01;10.20;99.90
52769;DHT22;40471;44.534;18.644;2024-03-07T02:56:31;10.20;99.90
52769;DHT22;40471;44.534;18.644;2024-03-07T02:58:57;10.20;99.90
52769;DHT22;40471;44.534;18.644;2024-03-07T03:01:22;10.20;99.90
52769;DHT22;40471;44.534;18.644;2024-03-07T03:03:48;10.10;99.90
52769;DHT22;40471;44.534;18.644;2024-03-07T03:06:14;10.10;99.90
52769;DHT22;40471;44.534;18.644;2024-03-07T03:08:40;10.10;99.90
52769;DHT22;40471;44.534;18.644;2024-03-07T03:11:06;10.20;99.90
52769;DHT22;40471;44.534;18.644;2024-03-07T03:13:37;10.20;99.90
52769;DHT22;40471;44.534;18.644;2024-03-07T03:16:04;10.10;99.90
52769;DHT22;40471;44.534;18.644;2024-03-07T03:18:32;10.10;99.90
52769;DHT22;40471;44.534;18.644;2024-03-07T03:21:00;9.90;99.90
52769;DHT22;40471;44.534;18.644;2024-03-07T03:23:25;10.00;99.90
52769;DHT22;40471;44.534;18.644;2024-03-07T03:25:51;10.00;99.90
52769;DHT22;40471;44.534;18.644;2024-03-07T03:28:17;10.00;99.90
52769;DHT22;40471;44.534;18.644;2024-03-07T03:30:44;10.00;99.90
52769;DHT22;40471;44.534;18.644;2024-03-07T03:33:11;9.90;99.90
52769;DHT22;40471;44.534;18.644;2024-03-07T03:35:37;9.90;99.90
52769;DHT22;40471;44.534;18.644;2024-03-07T03:38:03;9.80;99.90
52769;DHT22;40471;44.534;18.644;2024-03-07T03:40:29;9.90;99.90
52769;DHT22;40471;44.534;18.644;2024-03-07T03:42:54;9.80;99.90
52769;DHT22;40471;44.534;18.644;2024-03-07T03:45:20;9.80;99.90
52769;DHT22;40471;44.534;18.644;2024-03-07T03:47:46;9.80;99.90
52769;DHT22;40471;44.534;18.644;2024-03-07T03:50:13;9.70;99.90
52769;DHT22;40471;44.534;18.644;2024-03-07T03:52:40;9.70;99.90
52769;DHT22;40471;44.534;18.644;2024-03-07T03:55:06;9.70;99.90
52769;DHT22;40471;44.534;18.644;2024-03-07T03:57:35;9.70;99.90
52769;DHT22;40471;44.534;18.644;2024-03-07T04:00:00;9.80;99.90
52769;DHT22;40471;44.534;18.644;2024-03-07T04:02:29;9.80;99.90
52769;DHT22;40471;44.534;18.644;2024-03-07T04:04:55;9.80;99.90
52769;DHT22;40471;44.534;18.644;2024-03-07T04:07:21;9.80;99.90
52769;DHT22;40471;44.534;18.644;2024-03-07T04:09:47;9.80;99.90
52769;DHT22;40471;44.534;18.644;2024-03-07T04:12:14;9.80;99.90
52769;DHT22;40471;44.534;18.644;2024-03-07T04:14:41;9.80;99.90
52769;DHT22;40471;44.534;18.644;2024-03-07T04:17:10;9.90;99.90
52769;DHT22;40471;44.534;18.644;2024-03-07T04:19:40;9.90;99.90
52769;DHT22;40471;44.534;18.644;2024-03-07T04:22:06;9.80;99.90
52769;DHT22;40471;44.534;18.644;2024-03-07T04:24:34;9.80;99.90
52769;DHT22;40471;44.534;18.644;2024-03-07T04:27:00;9.80;99.90
52769;DHT22;40471;44.534;18.644;2024-03-07T04:29:26;9.80;99.90
52769;DHT22;40471;44.534;18.644;2024-03-07T04:31:52;9.80;99.90
52769;DHT22;40471;44.534;18.644;2024-03-07T04:34:18;9.90;99.90
52769;DHT22;40471;44.534;18.644;2024-03-07T04:36:44;10.00;99.90
52769;DHT22;40471;44.534;18.644;2024-03-07T04:39:10;9.90;99.90
52769;DHT22;40471;44.534;18.644;2024-03-07T04:41:53;9.90;99.90
52769;DHT22;40471;44.534;18.644;2024-03-07T04:44:20;9.90;99.90
52769;DHT22;40471;44.534;18.644;2024-03-07T04:46:49;9.90;99.90
52769;DHT22;40471;44.534;18.644;2024-03-07T04:49:15;9.80;99.90
52769;DHT22;40471;44.534;18.644;2024-03-07T04:51:41;9.90;99.90
52769;DHT22;40471;44.534;18.644;2024-03-07T04:54:07;9.80;99.90
52769;DHT22;40471;44.534;18.644;2024-03-07T04:56:32;9.80;99.90
52769;DHT22;40471;44.534;18.644;2024-03-07T04:58:58;9.80;99.90
52769;DHT22;40471;44.534;18.644;2024-03-07T05:01:23;9.70;99.90
52769;DHT22;40471;44.534;18.644;2024-03-07T05:03:50;9.70;99.90
52769;DHT22;40471;44.534;18.644;2024-03-07T05:06:17;9.70;99.90
52769;DHT22;40471;44.534;18.644;2024-03-07T05:08:44;9.70;99.90
52769;DHT22;40471;44.534;18.644;2024-03-07T05:11:09;9.80;99.90
52769;DHT22;40471;44.534;18.644;2024-03-07T05:13:36;9.70;99.90
52769;DHT22;40471;44.534;18.644;2024-03-07T05:16:02;9.80;99.90
52769;DHT22;40471;44.534;18.644;2024-03-07T05:18:28;9.90;99.90
52769;DHT22;40471;44.534;18.644;2024-03-07T05:20:54;9.90;99.90
52769;DHT22;40471;44.534;18.644;2024-03-07T05:23:20;10.00;99.90
52769;DHT22;40471;44.534;18.644;2024-03-07T05:25:46;9.90;99.90
52769;DHT22;40471;44.534;18.644;2024-03-07T05:28:12;9.90;99.90
52769;DHT22;40471;44.534;18.644;2024-03-07T05:30:37;9.90;99.90
52769;DHT22;40471;44.534;18.644;2024-03-07T05:33:03;9.70;99.90
52769;DHT22;40471;44.534;18.644;2024-03-07T05:35:30;9.70;99.90
52769;DHT22;40471;44.534;18.644;2024-03-07T05:37:55;9.50;99.90
52769;DHT22;40471;44.534;18.644;2024-03-07T05:40:22;9.40;99.90
52769;DHT22;40471;44.534;18.644;2024-03-07T05:42:48;9.40;99.90
52769;DHT22;40471;44.534;18.644;2024-03-07T05:45:14;9.50;99.90
52769;DHT22;40471;44.534;18.644;2024-03-07T05:47:40;9.50;99.90
52769;DHT22;40471;44.534;18.644;2024-03-07T05:50:07;9.40;99.90
52769;DHT22;40471;44.534;18.644;2024-03-07T05:52:36;9.20;99.90
52769;DHT22;40471;44.534;18.644;2024-03-07T05:55:03;9.20;99.90
52769;DHT22;40471;44.534;18.644;2024-03-07T05:57:29;9.20;99.90
52769;DHT22;40471;44.534;18.644;2024-03-07T05:59:55;9.10;99.90
52769;DHT22;40471;44.534;18.644;2024-03-07T06:02:22;9.10;99.90
52769;DHT22;40471;44.534;18.644;2024-03-07T06:04:48;9.10;99.90
52769;DHT22;40471;44.534;18.644;2024-03-07T06:07:13;9.00;99.90
52769;DHT22;40471;44.534;18.644;2024-03-07T06:09:39;9.00;99.90
52769;DHT22;40471;44.534;18.644;2024-03-07T06:12:05;9.10;99.90
52769;DHT22;40471;44.534;18.644;2024-03-07T06:14:34;9.10;99.90
52769;DHT22;40471;44.534;18.644;2024-03-07T06:17:00;9.10;99.90
52769;DHT22;40471;44.534;18.644;2024-03-07T06:19:26;9.10;99.90
52769;DHT22;40471;44.534;18.644;2024-03-07T06:21:52;9.00;99.90
52769;DHT22;40471;44.534;18.644;2024-03-07T06:24:19;9.00;99.90
52769;DHT22;40471;44.534;18.644;2024-03-07T06:26:48;9.10;99.90
52769;DHT22;40471;44.534;18.644;2024-03-07T06:29:37;9.10;99.90
52769;DHT22;40471;44.534;18.644;2024-03-07T06:32:03;9.20;99.90
52769;DHT22;40471;44.534;18.644;2024-03-07T06:34:29;9.30;99.90
52769;DHT22;40471;44.534;18.644;2024-03-07T06:36:56;9.40;99.90
52769;DHT22;40471;44.534;18.644;2024-03-07T06:39:21;9.50;99.90
52769;DHT22;40471;44.534;18.644;2024-03-07T06:41:47;9.40;99.90
52769;DHT22;40471;44.534;18.644;2024-03-07T06:44:13;9.50;99.90
52769;DHT22;40471;44.534;18.644;2024-03-07T06:46:38;9.50;99.90
52769;DHT22;40471;44.534;18.644;2024-03-07T06:49:04;9.40;99.90
52769;DHT22;40471;44.534;18.644;2024-03-07T06:51:35;9.40;99.90
52769;DHT22;40471;44.534;18.644;2024-03-07T06:54:01;9.30;99.90
52769;DHT22;40471;44.534;18.644;2024-03-07T06:56:27;9.30;99.90
52769;DHT22;40471;44.534;18.644;2024-03-07T06:58:52;9.10;99.90
52769;DHT22;40471;44.534;18.644;2024-03-07T07:01:18;9.10;99.90
52769;DHT22;40471;44.534;18.644;2024-03-07T07:03:45;8.90;99.90
52769;DHT22;40471;44.534;18.644;2024-03-07T07:06:11;8.90;99.90
52769;DHT22;40471;44.534;18.644;2024-03-07T07:08:37;8.80;99.90
52769;DHT22;40471;44.534;18.644;2024-03-07T07:11:03;8.70;99.90
52769;DHT22;40471;44.534;18.644;2024-03-07T07:13:30;8.70;99.90
52769;DHT22;40471;44.534;18.644;2024-03-07T07:15:56;8.70;99.90
52769;DHT22;40471;44.534;18.644;2024-03-07T07:18:26;8.70;99.90
52769;DHT22;40471;44.534;18.644;2024-03-07T07:20:52;8.60;99.90
52769;DHT22;40471;44.534;18.644;2024-03-07T07:23:19;8.60;99.90
52769;DHT22;40471;44.534;18.644;2024-03-07T07:25:45;8.70;99.90
52769;DHT22;40471;44.534;18.644;2024-03-07T07:28:11;8.70;99.90
52769;DHT22;40471;44.534;18.644;2024-03-07T07:30:37;8.70;99.90
52769;DHT22;40471;44.534;18.644;2024-03-07T07:33:03;8.70;99.90
52769;DHT22;40471;44.534;18.644;2024-03-07T07:35:29;8.80;99.90
52769;DHT22;40471;44.534;18.644;2024-03-07T07:37:56;8.80;99.90
52769;DHT22;40471;44.534;18.644;2024-03-07T07:40:23;8.80;99.90
52769;DHT22;40471;44.534;18.644;2024-03-07T07:42:51;8.70;99.90
52769;DHT22;40471;44.534;18.644;2024-03-07T07:45:20;8.80;99.90
52769;DHT22;40471;44.534;18.644;2024-03-07T07:47:48;8.80;99.90
52769;DHT22;40471;44.534;18.644;2024-03-07T07:50:19;8.80;99.90
52769;DHT22;40471;44.534;18.644;2024-03-07T07:52:46;8.70;99.90
52769;DHT22;40471;44.534;18.644;2024-03-07T07:55:24;8.60;99.90
52769;DHT22;40471;44.534;18.644;2024-03-07T07:57:51;8.60;99.90
52769;DHT22;40471;44.534;18.644;2024-03-07T08:00:21;8.60;99.90
52769;DHT22;40471;44.534;18.644;2024-03-07T08:03:00;8.60;99.90
52769;DHT22;40471;44.534;18.644;2024-03-07T08:05:36;8.60;99.90
52769;DHT22;40471;44.534;18.644;2024-03-07T08:08:04;8.60;99.90
52769;DHT22;40471;44.534;18.644;2024-03-07T08:10:32;8.60;99.90
52769;DHT22;40471;44.534;18.644;2024-03-07T08:12:59;8.50;99.90
52769;DHT22;40471;44.534;18.644;2024-03-07T08:15:25;8.60;99.90
52769;DHT22;40471;44.534;18.644;2024-03-07T08:17:52;8.50;99.90
52769;DHT22;40471;44.534;18.644;2024-03-07T08:20:21;8.60;99.90
52769;DHT22;40471;44.534;18.644;2024-03-07T08:22:49;8.50;99.90
52769;DHT22;40471;44.534;18.644;2024-03-07T08:25:19;8.50;99.90
52769;DHT22;40471;44.534;18.644;2024-03-07T08:27:47;8.50;99.90
52769;DHT22;40471;44.534;18.644;2024-03-07T08:30:14;8.50;99.90
52769;DHT22;40471;44.534;18.644;2024-03-07T08:32:44;8.40;99.90
52769;DHT22;40471;44.534;18.644;2024-03-07T08:35:11;8.30;99.90
52769;DHT22;40471;44.534;18.644;2024-03-07T08:37:41;8.20;99.90
52769;DHT22;40471;44.534;18.644;2024-03-07T08:40:08;8.30;99.90
52769;DHT22;40471;44.534;18.644;2024-03-07T08:42:42;8.30;99.90
52769;DHT22;40471;44.534;18.644;2024-03-07T08:45:08;8.30;99.90
52769;DHT22;40471;44.534;18.644;2024-03-07T08:47:37;8.40;99.90
52769;DHT22;40471;44.534;18.644;2024-03-07T08:50:04;8.40;99.90
52769;DHT22;40471;44.534;18.644;2024-03-07T08:52:37;8.20;99.90
52769;DHT22;40471;44.534;18.644;2024-03-07T08:55:05;8.10;99.90
52769;DHT22;40471;44.534;18.644;2024-03-07T08:57:31;7.90;99.90
52769;DHT22;40471;44.534;18.644;2024-03-07T08:59:57;7.80;99.90
52769;DHT22;40471;44.534;18.644;2024-03-07T09:02:23;7.90;99.90
52769;DHT22;40471;44.534;18.644;2024-03-07T09:04:49;7.90;99.90
52769;DHT22;40471;44.534;18.644;2024-03-07T09:07:15;8.00;99.90
52769;DHT22;40471;44.534;18.644;2024-03-07T09:09:43;8.00;99.90
52769;DHT22;40471;44.534;18.644;2024-03-07T09:12:10;8.00;99.90
52769;DHT22;40471;44.534;18.644;2024-03-07T09:14:37;8.00;99.90
52769;DHT22;40471;44.534;18.644;2024-03-07T09:17:03;8.00;99.90
52769;DHT22;40471;44.534;18.644;2024-03-07T09:19:32;8.10;99.90
52769;DHT22;40471;44.534;18.644;2024-03-07T09:21:58;8.00;99.90
52769;DHT22;40471;44.534;18.644;2024-03-07T09:24:25;8.00;99.90
52769;DHT22;40471;44.534;18.644;2024-03-07T09:26:52;7.80;99.90
52769;DHT22;40471;44.534;18.644;2024-03-07T09:29:19;7.90;99.90
52769;DHT22;40471;44.534;18.644;2024-03-07T09:31:54;7.90;99.90
52769;DHT22;40471;44.534;18.644;2024-03-07T09:34:24;8.00;99.90
52769;DHT22;40471;44.534;18.644;2024-03-07T09:36:51;7.90;99.90
52769;DHT22;40471;44.534;18.644;2024-03-07T09:39:17;7.90;99.90
52769;DHT22;40471;44.534;18.644;2024-03-07T09:41:44;8.00;99.90
52769;DHT22;40471;44.534;18.644;2024-03-07T09:44:14;8.10;99.90
52769;DHT22;40471;44.534;18.644;2024-03-07T09:46:48;8.10;99.90
52769;DHT22;40471;44.534;18.644;2024-03-07T09:49:14;7.90;99.90
52769;DHT22;40471;44.534;18.644;2024-03-07T09:51:40;7.90;99.90
52769;DHT22;40471;44.534;18.644;2024-03-07T09:54:08;7.90;99.90
52769;DHT22;40471;44.534;18.644;2024-03-07T09:56:36;7.90;99.90
52769;DHT22;40471;44.534;18.644;2024-03-07T09:59:04;7.90;99.90
52769;DHT22;40471;44.534;18.644;2024-03-07T10:01:32;8.00;99.90
52769;DHT22;40471;44.534;18.644;2024-03-07T10:04:00;8.00;99.90
52769;DHT22;40471;44.534;18.644;2024-03-07T10:06:44;8.20;99.90
52769;DHT22;40471;44.534;18.644;2024-03-07T10:09:11;8.20;99.90
52769;DHT22;40471;44.534;18.644;2024-03-07T10:11:39;8.30;99.90
52769;DHT22;40471;44.534;18.644;2024-03-07T10:14:07;8.10;99.90
52769;DHT22;40471;44.534;18.644;2024-03-07T10:16:33;8.10;99.90
52769;DHT22;40471;44.534;18.644;2024-03-07T10:18:59;8.10;99.90
52769;DHT22;40471;44.534;18.644;2024-03-07T10:21:27;8.10;99.90
52769;DHT22;40471;44.534;18.644;2024-03-07T10:24:06;8.10;99.90
52769;DHT22;40471;44.534;18.644;2024-03-07T10:26:40;8.10;99.90
52769;DHT22;40471;44.534;18.644;2024-03-07T10:29:06;8.20;99.90
52769;DHT22;40471;44.534;18.644;2024-03-07T10:31:33;8.20;99.90
52769;DHT22;40471;44.534;18.644;2024-03-07T10:34:03;8.20;99.90
52769;DHT22;40471;44.534;18.644;2024-03-07T10:36:30;8.10;99.90
52769;DHT22;40471;44.534;18.644;2024-03-07T10:38:59;8.00;99.90
52769;DHT22;40471;44.534;18.644;2024-03-07T10:41:28;7.90;99.90
52769;DHT22;40471;44.534;18.644;2024-03-07T10:43:57;8.00;99.90
52769;DHT22;40471;44.534;18.644;2024-03-07T10:46:26;7.90;99.90
52769;DHT22;40471;44.534;18.644;2024-03-07T10:48:55;8.00;99.90
52769;DHT22;40471;44.534;18.644;2024-03-07T10:51:46;8.00;99.90
52769;DHT22;40471;44.534;18.644;2024-03-07T10:54:29;8.10;99.90
52769;DHT22;40471;44.534;18.644;2024-03-07T10:59:48;8.30;99.90
52769;DHT22;40471;44.534;18.644;2024-03-07T11:02:43;8.20;99.90
52769;DHT22;40471;44.534;18.644;2024-03-07T11:05:13;8.10;99.90
52769;DHT22;40471;44.534;18.644;2024-03-07T11:07:42;7.90;99.90
52769;DHT22;40471;44.534;18.644;2024-03-07T11:10:10;7.90;99.90
52769;DHT22;40471;44.534;18.644;2024-03-07T11:12:38;8.00;99.90
52769;DHT22;40471;44.534;18.644;2024-03-07T11:15:08;7.90;99.90
52769;DHT22;40471;44.534;18.644;2024-03-07T11:17:44;8.00;99.90
52769;DHT22;40471;44.534;18.644;2024-03-07T11:20:34;7.90;99.90
52769;DHT22;40471;44.534;18.644;2024-03-07T11:23:00;7.80;99.90
52769;DHT22;40471;44.534;18.644;2024-03-07T11:25:28;7.80;99.90
52769;DHT22;40471;44.534;18.644;2024-03-07T11:27:55;7.90;99.90
52769;DHT22;40471;44.534;18.644;2024-03-07T11:30:22;7.90;99.90
52769;DHT22;40471;44.534;18.644;2024-03-07T11:32:49;7.90;99.90
52769;DHT22;40471;44.534;18.644;2024-03-07T11:35:39;7.90;99.90
52769;DHT22;40471;44.534;18.644;2024-03-07T11:38:07;7.80;99.90
52769;DHT22;40471;44.534;18.644;2024-03-07T11:43:05;7.80;99.90
52769;DHT22;40471;44.534;18.644;2024-03-07T11:45:32;7.70;99.90
52769;DHT22;40471;44.534;18.644;2024-03-07T11:48:10;7.80;99.90
52769;DHT22;40471;44.534;18.644;2024-03-07T11:50:36;7.80;99.90
52769;DHT22;40471;44.534;18.644;2024-03-07T11:53:03;7.80;99.90
52769;DHT22;40471;44.534;18.644;2024-03-07T11:55:32;7.80;99.90
52769;DHT22;40471;44.534;18.644;2024-03-07T11:58:09;7.80;99.90
52769;DHT22;40471;44.534;18.644;2024-03-07T12:00:39;7.80;99.90
52769;DHT22;40471;44.534;18.644;2024-03-07T12:03:08;7.80;99.90
52769;DHT22;40471;44.534;18.644;2024-03-07T12:05:34;7.70;99.90
52769;DHT22;40471;44.534;18.644;2024-03-07T12:08:00;7.70;99.90
52769;DHT22;40471;44.534;18.644;2024-03-07T12:10:26;7.60;99.90
52769;DHT22;40471;44.534;18.644;2024-03-07T12:12:54;7.60;99.90
52769;DHT22;40471;44.534;18.644;2024-03-07T12:15:22;7.60;99.90
52769;DHT22;40471;44.534;18.644;2024-03-07T12:17:50;7.70;99.90
52769;DHT22;40471;44.534;18.644;2024-03-07T12:20:18;7.80;99.90
52769;DHT22;40471;44.534;18.644;2024-03-07T12:22:55;7.70;99.90
52769;DHT22;40471;44.534;18.644;2024-03-07T12:25:22;7.70;99.90
52769;DHT22;40471;44.534;18.644;2024-03-07T12:28:08;7.60;99.90
52769;DHT22;40471;44.534;18.644;2024-03-07T12:30:51;7.60;99.90
52769;DHT22;40471;44.534;18.644;2024-03-07T12:33:18;7.60;99.90
52769;DHT22;40471;44.534;18.644;2024-03-07T12:35:46;7.70;99.90
52769;DHT22;40471;44.534;18.644;2024-03-07T12:38:14;7.70;99.90
52769;DHT22;40471;44.534;18.644;2024-03-07T12:40:42;7.80;99.90
52769;DHT22;40471;44.534;18.644;2024-03-07T12:43:20;7.80;99.90
52769;DHT22;40471;44.534;18.644;2024-03-07T12:45:52;7.90;99.90
52769;DHT22;40471;44.534;18.644;2024-03-07T12:48:20;8.00;99.90
52769;DHT22;40471;44.534;18.644;2024-03-07T12:50:50;8.00;99.90
52769;DHT22;40471;44.534;18.644;2024-03-07T12:53:20;8.00;99.90
52769;DHT22;40471;44.534;18.644;2024-03-07T12:55:48;8.00;99.90
52769;DHT22;40471;44.534;18.644;2024-03-07T12:58:13;8.00;99.90
52769;DHT22;40471;44.534;18.644;2024-03-07T13:00:41;7.90;99.90
52769;DHT22;40471;44.534;18.644;2024-03-07T13:03:09;7.90;99.90
52769;DHT22;40471;44.534;18.644;2024-03-07T13:05:37;8.00;99.90
52769;DHT22;40471;44.534;18.644;2024-03-07T13:08:07;8.00;99.90
52769;DHT22;40471;44.534;18.644;2024-03-07T13:10:42;8.00;99.90
52769;DHT22;40471;44.534;18.644;2024-03-07T13:13:08;8.00;99.90
52769;DHT22;40471;44.534;18.644;2024-03-07T13:15:40;8.10;99.90
52769;DHT22;40471;44.534;18.644;2024-03-07T13:18:08;8.10;99.90
52769;DHT22;40471;44.534;18.644;2024-03-07T13:20:34;8.20;99.90
52769;DHT22;40471;44.534;18.644;2024-03-07T13:23:00;8.20;99.90
52769;DHT22;40471;44.534;18.644;2024-03-07T13:25:27;8.20;99.90
52769;DHT22;40471;44.534;18.644;2024-03-07T13:28:10;8.20;99.90
52769;DHT22;40471;44.534;18.644;2024-03-07T13:30:42;8.30;99.90
52769;DHT22;40471;44.534;18.644;2024-03-07T13:33:20;8.30;99.90
52769;DHT22;40471;44.534;18.644;2024-03-07T13:35:46;8.30;99.90
52769;DHT22;40471;44.534;18.644;2024-03-07T13:38:12;8.30;99.90
52769;DHT22;40471;44.534;18.644;2024-03-07T13:40:39;8.40;99.90
52769;DHT22;40471;44.534;18.644;2024-03-07T13:43:06;8.30;99.90
52769;DHT22;40471;44.534;18.644;2024-03-07T13:45:34;8.30;99.90
52769;DHT22;40471;44.534;18.644;2024-03-07T13:48:10;8.40;99.90
52769;DHT22;40471;44.534;18.644;2024-03-07T13:50:39;8.40;99.90
52769;DHT22;40471;44.534;18.644;2024-03-07T13:53:06;8.40;99.90
52769;DHT22;40471;44.534;18.644;2024-03-07T13:56:33;8.50;99.90
52769;DHT22;40471;44.534;18.644;2024-03-07T14:01:39;8.50;99.90
52769;DHT22;40471;44.534;18.644;2024-03-07T14:16:21;8.40;99.90
52769;DHT22;40471;44.534;18.644;2024-03-07T14:25:25;8.50;99.90
52769;DHT22;40471;44.534;18.644;2024-03-07T14:30:55;8.60;99.90
52769;DHT22;40471;44.534;18.644;2024-03-07T14:33:31;8.50;99.90
52769;DHT22;40471;44.534;18.644;2024-03-07T14:36:13;8.50;99.90
52769;DHT22;40471;44.534;18.644;2024-03-07T14:38:54;8.50;99.90
52769;DHT22;40471;44.534;18.644;2024-03-07T14:41:24;8.60;99.90
52769;DHT22;40471;44.534;18.644;2024-03-07T14:44:05;8.50;99.90
52769;DHT22;40471;44.534;18.644;2024-03-07T14:46:33;8.60;99.90
52769;DHT22;40471;44.534;18.644;2024-03-07T14:49:00;8.60;99.90
52769;DHT22;40471;44.534;18.644;2024-03-07T14:51:26;8.70;99.90
52769;DHT22;40471;44.534;18.644;2024-03-07T14:53:52;8.70;99.90
52769;DHT22;40471;44.534;18.644;2024-03-07T14:56:17;8.70;99.90
52769;DHT22;40471;44.534;18.644;2024-03-07T14:58:45;8.70;99.90
52769;DHT22;40471;44.534;18.644;2024-03-07T15:01:12;8.70;99.90
52769;DHT22;40471;44.534;18.644;2024-03-07T15:03:39;8.80;99.90
52769;DHT22;40471;44.534;18.644;2024-03-07T15:06:09;8.70;99.90
52769;DHT22;40471;44.534;18.644;2024-03-07T15:08:35;8.70;99.90
52769;DHT22;40471;44.534;18.644;2024-03-07T15:11:17;8.70;99.90
52769;DHT22;40471;44.534;18.644;2024-03-07T15:13:46;8.70;99.90
52769;DHT22;40471;44.534;18.644;2024-03-07T15:16:13;8.70;99.90
52769;DHT22;40471;44.534;18.644;2024-03-07T15:18:39;8.80;99.90
52769;DHT22;40471;44.534;18.644;2024-03-07T15:21:05;8.80;99.90
52769;DHT22;40471;44.534;18.644;2024-03-07T15:23:31;8.70;99.90
52769;DHT22;40471;44.534;18.644;2024-03-07T15:25:57;8.60;99.90
52769;DHT22;40471;44.534;18.644;2024-03-07T15:28:22;8.70;99.90
52769;DHT22;40471;44.534;18.644;2024-03-07T15:30:49;8.70;99.90
52769;DHT22;40471;44.534;18.644;2024-03-07T15:33:15;8.70;99.90
52769;DHT22;40471;44.534;18.644;2024-03-07T15:35:42;8.70;99.90
52769;DHT22;40471;44.534;18.644;2024-03-07T15:38:07;8.70;99.90
52769;DHT22;40471;44.534;18.644;2024-03-07T15:40:34;8.70;99.90
52769;DHT22;40471;44.534;18.644;2024-03-07T15:43:00;8.80;99.90
52769;DHT22;40471;44.534;18.644;2024-03-07T15:45:58;8.80;99.90
52769;DHT22;40471;44.534;18.644;2024-03-07T15:48:59;8.90;99.90
52769;DHT22;40471;44.534;18.644;2024-03-07T15:51:32;8.80;99.90
52769;DHT22;40471;44.534;18.644;2024-03-07T15:53:59;8.90;99.90
52769;DHT22;40471;44.534;18.644;2024-03-07T15:56:26;8.90;99.90
52769;DHT22;40471;44.534;18.644;2024-03-07T15:58:52;8.90;99.90
52769;DHT22;40471;44.534;18.644;2024-03-07T16:01:18;8.90;99.90
52769;DHT22;40471;44.534;18.644;2024-03-07T16:03:43;8.90;99.90
52769;DHT22;40471;44.534;18.644;2024-03-07T16:06:12;8.90;99.90